Welcome to the New NWS' Forecast!
Most changes are behind the scenes, but click here for differences you might notice.

Terminal Aerodrome Forecast (TAF)

Issued by National Weather Service (NWS)

                            
000
FTUS42 KKEY 170428 AAE
TAFEYW
TAF AMD
KEYW 170428Z 1704/1724 10015G22KT P6SM VCSH SCT025
      TEMPO 1704/1705 5SM SHRA BKN025=